Latest Weather Observations for Norah Head

IDN60801

Issued at 7:53 pm EST Sunday 26 September 2021 (issued every 10 minutes, with the page automatically refreshed every 10 minutes)

About weather observations | Map of weather stations | Latest weather observations for NSW | Other Formats
Station Details ID: 061366 Name: NORAH HEAD AWS Lat: -33.28 Lon: 151.58 Height: 18.8 m
Data from the previous 72 hours. | See also: Recent months at Norah Head
Date/Time
EST
Temp
°C
App
Temp
°C
Dew
Point
°C
Rel
Hum
%
Delta-T
°C
Wind Press
QNH
hPa
Press
MSL
hPa
Rain since
9am
mm
Dir  Spd
km/h
Gust
km/h
Spd
kts
Gust
kts
26/07:30pm 14.2 8.8 7.9 66 3.1 SE 26 32 14 17 1026.5 1026.5 1.2
26/07:00pm 14.3 9.0 8.3 67 3.0 SE 26 32 14 17 1026.4 1026.4 1.2
26/06:30pm 14.4 9.1 8.6 68 2.9 SE 26 32 14 17 1026.1 1026.1 1.2
26/06:00pm 14.4 8.4 8.6 68 2.9 SSE 30 35 16 19 1025.8 1025.8 1.2
26/05:30pm 13.8 10.1 9.5 75 2.2 S 19 28 10 15 1025.9 1025.9 1.2
26/05:00pm 13.6 9.3 10.6 82 1.6 SE 24 30 13 16 1026.0 1026.0 1.2
26/04:30pm 13.1 8.7 10.3 83 1.5 SE 24 30 13 16 1025.8 1025.8 1.2
26/04:00pm 12.8 6.3 9.1 78 1.9 SSE 33 46 18 25 1025.5 1025.5 0.8
26/03:46pm 14.0 8.7 9.8 76 2.2 SE 28 46 15 25 1025.1 1025.0 0.8
26/03:30pm 14.4 9.9 10.0 75 2.3 SE 24 30 13 16 1025.5 1025.5 0.8
26/03:00pm 15.3 10.3 10.9 75 2.3 SSE 28 35 15 19 1025.3 1025.3 0.8
26/02:30pm 14.1 8.0 9.9 76 2.2 S 32 39 17 21 1025.4 1025.4 0.8
26/02:00pm 15.9 11.0 10.0 68 3.1 SSE 26 32 14 17 1025.5 1025.5 0.8
26/01:30pm 15.3 8.9 9.4 68 3.0 SSE 33 41 18 22 1025.5 1025.5 0.8
26/01:00pm 15.7 9.6 9.8 68 3.1 SSE 32 41 17 22 1025.5 1025.5 0.8
26/12:30pm 15.8 10.2 10.3 70 2.9 S 30 35 16 19 1025.6 1025.6 0.8
26/12:00pm 15.6 12.7 12.4 81 1.7 S 19 33 10 18 1025.8 1025.8 0.8
26/11:30am 14.5 10.7 11.3 81 1.7 SSE 22 32 12 17 1026.3 1026.3 0.8
26/11:00am 14.1 7.3 10.5 79 1.9 S 37 43 20 23 1026.1 1026.1 0.6
26/10:30am 13.9 9.3 10.9 82 1.6 S 26 41 14 22 1026.1 1026.1 0.6
26/10:00am 14.3 8.6 11.1 81 1.7 SSE 32 39 17 21 1026.0 1026.0 0.6
26/09:55am 14.6 9.5 11.9 84 1.5 SSE 30 39 16 21 1026.0 1026.0 0.6
26/09:30am 13.4 11.8 11.6 89 1.0 SSE 11 17 6 9 1026.2 1026.2 0.6
26/09:00am 12.6 9.1 10.8 89 0.9 SSE 20 28 11 15 1026.2 1026.2 9.4
26/08:30am 12.8 8.6 11.0 89 0.9 SSE 24 32 13 17 1025.7 1025.7 9.2
26/08:00am 12.7 6.7 10.9 89 0.9 SSE 33 48 18 26 1025.3 1025.3 8.6
26/07:30am 12.3 7.7 10.9 91 0.7 SE 26 30 14 16 1025.1 1025.0 8.4
26/07:00am 11.6 6.3 9.9 89 0.9 SSE 28 35 15 19 1025.1 1025.0 6.8
26/06:30am 12.5 6.4 10.6 88 1.0 S 33 41 18 22 1024.2 1024.1 5.6
26/06:00am 11.8 4.7 9.7 87 1.1 SSE 37 46 20 25 1023.8 1023.7 4.8
26/05:30am 12.4 7.7 9.4 82 1.5 SSE 24 33 13 18 1023.5 1023.4 2.8
26/05:00am 12.7 6.6 9.7 82 1.5 SSE 32 39 17 21 1023.1 1023.0 2.2
26/04:30am 13.4 7.0 9.3 76 2.1 S 33 44 18 24 1022.6 1022.5 1.8
26/04:00am 13.4 7.0 9.3 76 2.1 S 33 41 18 22 1022.3 1022.2 1.8
26/03:30am 13.3 6.7 10.1 81 1.7 S 35 46 19 25 1022.1 1022.0 1.6
26/03:00am 13.3 6.6 9.7 79 1.8 S 35 43 19 23 1022.0 1021.9 1.2
26/02:30am 13.4 7.2 10.2 81 1.7 SSE 33 43 18 23 1022.0 1021.9 1.0
26/02:00am 13.1 6.5 9.9 81 1.6 S 35 46 19 25 1022.2 1022.1 0.6
26/01:30am 13.7 6.6 9.7 77 2.1 SSE 37 43 20 23 1022.2 1022.1 0.4
26/01:00am 14.2 7.0 10.4 78 2.0 SSE 39 46 21 25 1022.1 1022.0 0.2
26/12:30am 14.3 7.0 10.3 77 2.1 S 39 44 21 24 1022.0 1021.9 0.2
26/12:00am 14.5 7.5 10.1 75 2.3 S 37 46 20 25 1021.9 1021.8 0.2
 
Date/Time
EST
Temp
°C
App
Temp
°C
Dew
Point
°C
Rel
Hum
%
Delta-T
°C
Wind Press
QNH
hPa
Press
MSL
hPa
Rain since
9am
mm
Dir  Spd
km/h
Gust
km/h
Spd
kts
Gust
kts
25/11:30pm 14.4 6.7 10.0 75 2.3 S 41 48 22 26 1021.8 1021.7 0.2
25/11:00pm 15.2 9.0 10.0 71 2.7 S 33 39 18 21 1021.5 1021.4 0.2
25/10:30pm 15.1 9.0 10.5 74 2.4 SSE 33 41 18 22 1021.5 1021.4 0.2
25/10:00pm 14.7 7.9 10.7 77 2.1 SSE 37 41 20 22 1021.4 1021.3 0.2
25/09:30pm 14.3 7.7 10.1 76 2.2 S 35 43 19 23 1021.3 1021.2 0.0
25/09:00pm 15.5 9.9 10.3 71 2.7 SSE 30 35 16 19 1021.2 1021.1 0.0
25/08:30pm 15.5 9.5 10.7 73 2.5 SSE 33 39 18 21 1021.0 1020.9 0.0
25/08:00pm 15.6 9.8 10.8 73 2.5 SSE 32 35 17 19 1020.6 1020.5 0.0
25/07:30pm 15.4 9.5 11.0 75 2.3 SSE 33 39 18 21 1020.3 1020.2 0.0
25/07:00pm 15.2 7.4 11.2 77 2.1 S 43 48 23 26 1019.6 1019.5 0.0
25/06:30pm 15.5 8.9 11.3 76 2.3 SSE 37 43 20 23 1019.2 1019.1 0.0
25/06:00pm 15.6 9.1 11.6 77 2.2 SSE 37 43 20 23 1018.8 1018.7 0.0
25/05:30pm 15.9 9.1 11.9 77 2.2 SSE 39 46 21 25 1018.3 1018.2 0.0
25/05:00pm 15.9 9.4 11.7 76 2.3 SSE 37 46 20 25 1018.0 1017.9 0.0
25/04:30pm 16.1 8.5 11.9 76 2.3 SSE 43 50 23 27 1017.1 1017.0 0.0
25/04:00pm 16.6 8.9 12.2 75 2.4 SSE 44 50 24 27 1016.3 1016.2 0.0
25/03:30pm 17.3 10.0 12.8 75 2.5 SSE 43 48 23 26 1016.1 1016.0 0.0
25/03:00pm 17.1 11.2 12.4 74 2.6 SSE 35 43 19 23 1016.1 1016.0 0.0
25/02:30pm 17.1 9.5 12.4 74 2.6 SSE 44 54 24 29 1015.6 1015.5 0.0
25/02:00pm 18.0 10.6 13.1 73 2.8 SSE 44 52 24 28 1015.2 1015.1 0.0
25/01:30pm 18.6 10.9 13.2 71 3.1 SSE 46 52 25 28 1014.9 1014.8 0.0
25/01:00pm 18.9 11.7 13.7 72 3.0 SSE 44 50 24 27 1015.1 1015.0 0.0
25/12:30pm 18.8 11.2 13.6 72 3.0 SSE 46 54 25 29 1014.9 1014.8 0.0
25/12:00pm 18.4 11.0 13.1 71 3.0 S 44 54 24 29 1014.9 1014.8 0.0
25/11:30am 18.8 10.7 10.6 59 4.4 S 44 54 24 29 1014.7 1014.6 0.0
25/11:00am 19.3 11.7 7.4 46 6.1 S 37 48 20 26 1014.8 1014.7 0.0
25/10:30am 19.8 14.9 11.3 58 4.7 S 28 33 15 18 1014.8 1014.7 0.0
25/10:00am 19.7 15.1 10.9 57 4.8 S 26 32 14 17 1014.7 1014.6 0.0
25/09:30am 20.3 17.3 12.0 59 4.6 S 19 22 10 12 1014.6 1014.5 0.0
25/09:00am 20.7 19.4 12.4 59 4.7 S 11 15 6 8 1014.4 1014.3 2.0
25/08:30am 20.7 18.9 10.8 53 5.4 SSW 11 13 6 7 1014.2 1014.1 -
25/08:00am 19.5 17.2 7.6 46 6.1 SW 9 17 5 9 1013.9 1013.8 -
25/07:30am 19.1 17.4 9.9 55 4.9 SSW 9 15 5 8 1013.6 1013.5 -
25/07:00am 17.9 15.7 6.4 47 5.7 WNW 7 15 4 8 1012.9 1012.8 -
25/06:30am 17.1 14.1 6.0 48 5.4 WNW 11 19 6 10 1012.5 1012.4 -
25/06:00am 16.7 13.7 6.2 50 5.1 WNW 11 19 6 10 1012.0 1011.9 -
25/05:30am 16.5 13.8 5.8 49 5.2 WNW 9 13 5 7 1011.6 1011.5 -
25/05:00am 16.6 14.4 6.1 50 5.1 WNW 7 13 4 7 1011.4 1011.3 -
25/04:30am 16.9 14.4 6.7 51 5.0 WNW 9 13 5 7 1011.0 1010.9 -
25/04:00am 17.7 14.8 6.3 47 5.6 W 11 17 6 9 1010.7 1010.6 -
25/03:30am 18.4 15.3 5.6 43 6.2 W 11 22 6 12 1010.4 1010.3 -
25/03:00am 17.5 14.0 7.3 51 5.1 WSW 15 20 8 11 1010.4 1010.3 0.0
25/02:30am 14.6 13.0 8.1 65 3.3 NNW 6 9 3 5 1009.8 1009.7 -
25/02:00am 14.4 12.6 8.1 66 3.2 NW 7 9 4 5 1009.8 1009.7 -
25/01:30am 14.9 12.9 8.8 67 3.1 NW 9 15 5 8 1010.1 1010.0 -
25/01:00am 15.1 13.1 8.8 66 3.2 NW 9 13 5 7 1010.2 1010.1 -
25/12:30am 15.1 12.8 9.0 67 3.1 NW 11 15 6 8 1010.5 1010.4 -
25/12:00am 15.8 14.5 9.9 68 3.1 NW 7 13 4 7 1010.8 1010.7 -
 
Date/Time
EST
Temp
°C
App
Temp
°C
Dew
Point
°C
Rel
Hum
%
Delta-T
°C
Wind Press
QNH
hPa
Press
MSL
hPa
Rain since
9am
mm
Dir  Spd
km/h
Gust
km/h
Spd
kts
Gust
kts
24/11:30pm 15.1 13.4 9.9 71 2.7 NW 9 11 5 6 1010.9 1010.8 -
24/11:00pm 15.1 13.8 9.9 71 2.7 NW 7 11 4 6 1011.1 1011.0 -
24/10:30pm 15.7 14.4 9.8 68 3.1 NNW 7 7 4 4 1011.5 1011.4 -
24/10:00pm 16.7 15.3 9.4 62 3.8 N 7 9 4 5 1011.9 1011.8 -
24/09:30pm 17.1 15.6 10.7 66 3.4 NNW 9 11 5 6 1012.0 1011.9 -
24/09:00pm 17.3 16.1 10.4 64 3.7 NNW 7 9 4 5 1012.1 1012.0 0.2
24/08:30pm 18.0 16.7 7.7 51 5.2 NW 4 7 2 4 1012.2 1012.1 -
24/08:00pm 19.8 18.2 6.2 41 6.8 NW 4 9 2 5 1012.0 1011.9 -
24/07:30pm 20.4 18.9 6.7 41 6.9 WNW 4 11 2 6 1011.7 1011.6 -
24/07:00pm 20.4 19.1 7.7 44 6.6 WNW 4 9 2 5 1011.3 1011.2 -
24/06:30pm 21.9 20.4 6.6 37 7.8 WNW 4 9 2 5 1010.9 1010.8 -
24/06:00pm 22.8 20.5 5.7 33 8.6 WNW 7 17 4 9 1010.6 1010.5 -
24/05:30pm 23.7 21.4 5.6 31 9.2 WNW 7 15 4 8 1010.3 1010.2 -
24/05:00pm 24.4 22.1 5.7 30 9.5 WNW 7 17 4 9 1010.1 1010.0 -
24/04:30pm 25.1 22.5 6.3 30 9.7 WNW 9 20 5 11 1009.9 1009.8 -
24/04:00pm 25.3 22.4 6.5 30 9.8 W 11 24 6 13 1009.6 1009.5 -
24/03:30pm 26.3 23.2 7.4 30 10.0 WNW 13 32 7 17 1009.4 1009.3 -
24/03:00pm 26.6 24.0 7.6 30 10.2 W 11 28 6 15 1009.4 1009.3 0.0
24/02:30pm 26.8 24.1 7.3 29 10.4 WNW 11 28 6 15 1009.7 1009.6 -
24/02:00pm 26.8 23.7 7.3 29 10.4 NW 13 28 7 15 1009.8 1009.7 -
24/11:30am 25.3 23.6 10.0 38 8.5 WNW 9 22 5 12 1012.9 1012.8 0.0
24/11:00am 24.6 23.7 10.8 42 7.7 WNW 6 15 3 8 1013.4 1013.3 0.0
24/10:30am 23.7 21.9 9.3 40 7.8 WNW 9 20 5 11 1013.9 1013.8 0.0
24/10:00am 22.8 20.7 9.6 43 7.1 W 11 20 6 11 1014.5 1014.4 0.0
24/09:30am 22.0 19.9 9.9 46 6.6 WNW 11 20 6 11 1014.9 1014.8 0.0
24/09:00am 20.9 19.3 10.1 50 5.8 W 9 15 5 8 1015.2 1015.1 0.0
24/08:30am 20.0 18.3 9.9 52 5.4 WNW 9 19 5 10 1015.4 1015.3 0.0
24/08:00am 19.4 18.6 10.9 58 4.6 W 6 17 3 9 1015.4 1015.3 0.0
24/07:30am 17.6 16.3 9.8 60 4.1 NW 7 15 4 8 1015.4 1015.3 0.0
24/07:00am 16.7 16.1 10.5 67 3.3 NNW 4 7 2 4 1015.2 1015.1 0.0
24/06:30am 15.4 15.2 10.6 73 2.5 NW 2 6 1 3 1015.2 1015.1 0.0
24/06:00am 14.2 13.4 9.8 75 2.3 WNW 4 6 2 3 1015.0 1014.9 0.0
24/05:30am 14.2 13.1 9.8 75 2.3 NW 6 9 3 5 1014.7 1014.6 0.0
24/05:00am 14.7 13.4 10.1 74 2.4 NW 7 13 4 7 1014.9 1014.8 0.0
24/04:30am 14.4 13.2 10.2 76 2.2 NW 7 13 4 7 1014.6 1014.5 0.0
24/04:00am 14.4 13.3 10.0 75 2.3 N 6 11 3 6 1014.7 1014.6 0.0
24/03:30am 15.4 14.1 10.0 70 2.8 NNW 7 15 4 8 1015.0 1014.9 0.0
24/03:00am 15.7 14.1 10.2 70 2.9 N 9 15 5 8 1015.1 1015.0 0.0
24/02:30am 16.1 14.8 9.3 64 3.5 WNW 6 13 3 7 1015.3 1015.2 0.0
24/02:00am 15.9 14.4 10.7 71 2.8 WNW 9 17 5 9 1015.4 1015.3 0.0
24/01:30am 14.8 14.1 10.0 73 2.5 NW 4 7 2 4 1015.9 1015.8 0.0
24/01:00am 16.2 15.0 9.6 65 3.4 NW 6 15 3 8 1016.3 1016.2 0.0
24/12:30am 16.7 15.8 9.4 62 3.8 NW 4 9 2 5 1016.5 1016.4 0.0
24/12:00am 17.1 16.1 9.0 59 4.2 WNW 4 7 2 4 1016.5 1016.4 0.0
 
Date/Time
EST
Temp
°C
App
Temp
°C
Dew
Point
°C
Rel
Hum
%
Delta-T
°C
Wind Press
QNH
hPa
Press
MSL
hPa
Rain since
9am
mm
Dir  Spd
km/h
Gust
km/h
Spd
kts
Gust
kts
23/11:30pm 17.5 15.9 8.9 57 4.5 WNW 7 11 4 6 1016.5 1016.4 0.0
23/11:00pm 17.5 16.3 9.4 59 4.2 NW 6 11 3 6 1016.6 1016.5 0.0
23/10:30pm 17.5 16.2 10.1 62 3.9 WNW 7 13 4 7 1016.7 1016.6 0.0
23/10:00pm 17.5 16.6 11.3 67 3.4 WNW 7 17 4 9 1016.7 1016.6 0.0
23/09:30pm 17.3 17.2 13.8 80 2.0 WNW 7 11 4 6 1016.5 1016.4 0.0
23/09:00pm 16.6 16.6 14.1 85 1.4 NW 7 13 4 7 1016.6 1016.5 0.0
23/08:30pm 15.7 15.4 13.2 85 1.4 NNW 7 9 4 5 1016.5 1016.4 0.0
23/08:00pm 17.1 16.8 14.4 84 1.5 NNW 9 13 5 7 1016.6 1016.5 0.0

Other formats

Comma delimited format used in spreadsheet applications
http://www.bom.gov.au/fwo/IDN60801/IDN60801.95770.axf

JavaScript Object Notation format (JSON) in row-major order
http://www.bom.gov.au/fwo/IDN60801/IDN60801.95770.json

Data quality

Most of these data are generated automatically and are frequently updated. Quality checks on data are not normally performed. It is possible for incorrect values to appear. Refer to information at About Latest Weather Observations and please check the disclaimer before using these data.